sensor_id;sensor_type;location;lat;lon;timestamp;temperature;humidity
16511;DHT22;8368;48.772;8.754;2022-07-22T00:01:56;16.00;99.90
16511;DHT22;8368;48.772;8.754;2022-07-22T00:04:22;15.90;99.90
16511;DHT22;8368;48.772;8.754;2022-07-22T00:06:47;15.80;99.90
16511;DHT22;8368;48.772;8.754;2022-07-22T00:09:13;15.70;99.90
16511;DHT22;8368;48.772;8.754;2022-07-22T00:11:38;15.70;99.90
16511;DHT22;8368;48.772;8.754;2022-07-22T00:14:04;15.60;99.90
16511;DHT22;8368;48.772;8.754;2022-07-22T00:16:30;15.60;99.90
16511;DHT22;8368;48.772;8.754;2022-07-22T00:18:55;15.60;99.90
16511;DHT22;8368;48.772;8.754;2022-07-22T00:21:21;15.50;99.90
16511;DHT22;8368;48.772;8.754;2022-07-22T00:23:46;15.50;99.90
16511;DHT22;8368;48.772;8.754;2022-07-22T00:26:13;15.50;99.90
16511;DHT22;8368;48.772;8.754;2022-07-22T00:28:38;15.50;99.90
16511;DHT22;8368;48.772;8.754;2022-07-22T00:31:04;15.40;99.90
16511;DHT22;8368;48.772;8.754;2022-07-22T00:33:30;15.40;99.90
16511;DHT22;8368;48.772;8.754;2022-07-22T00:35:56;15.40;99.90
16511;DHT22;8368;48.772;8.754;2022-07-22T00:38:21;15.40;99.90
16511;DHT22;8368;48.772;8.754;2022-07-22T00:40:47;15.40;99.90
16511;DHT22;8368;48.772;8.754;2022-07-22T00:43:12;15.40;99.90
16511;DHT22;8368;48.772;8.754;2022-07-22T00:45:38;15.40;99.90
16511;DHT22;8368;48.772;8.754;2022-07-22T00:48:04;15.40;99.90
16511;DHT22;8368;48.772;8.754;2022-07-22T00:50:30;15.30;99.90
16511;DHT22;8368;48.772;8.754;2022-07-22T00:52:56;15.30;99.90
16511;DHT22;8368;48.772;8.754;2022-07-22T00:55:21;15.20;99.90
16511;DHT22;8368;48.772;8.754;2022-07-22T00:57:47;15.20;99.90
16511;DHT22;8368;48.772;8.754;2022-07-22T01:00:18;15.10;99.90
16511;DHT22;8368;48.772;8.754;2022-07-22T01:02:45;15.10;99.90
16511;DHT22;8368;48.772;8.754;2022-07-22T01:05:10;15.10;99.90
16511;DHT22;8368;48.772;8.754;2022-07-22T01:07:37;15.10;99.90
16511;DHT22;8368;48.772;8.754;2022-07-22T01:10:04;15.10;99.90
16511;DHT22;8368;48.772;8.754;2022-07-22T01:12:30;15.10;99.90
16511;DHT22;8368;48.772;8.754;2022-07-22T01:14:56;15.10;99.90
16511;DHT22;8368;48.772;8.754;2022-07-22T01:17:21;15.10;99.90
16511;DHT22;8368;48.772;8.754;2022-07-22T01:19:47;15.10;99.90
16511;DHT22;8368;48.772;8.754;2022-07-22T01:22:13;15.10;99.90
16511;DHT22;8368;48.772;8.754;2022-07-22T01:24:38;15.10;99.90
16511;DHT22;8368;48.772;8.754;2022-07-22T01:27:04;15.00;99.90
16511;DHT22;8368;48.772;8.754;2022-07-22T01:29:30;15.00;99.90
16511;DHT22;8368;48.772;8.754;2022-07-22T01:31:56;15.00;99.90
16511;DHT22;8368;48.772;8.754;2022-07-22T01:34:22;14.90;99.90
16511;DHT22;8368;48.772;8.754;2022-07-22T01:36:47;14.90;99.90
16511;DHT22;8368;48.772;8.754;2022-07-22T01:39:13;14.90;99.90
16511;DHT22;8368;48.772;8.754;2022-07-22T01:41:39;14.90;99.90
16511;DHT22;8368;48.772;8.754;2022-07-22T01:44:05;14.90;99.90
16511;DHT22;8368;48.772;8.754;2022-07-22T01:46:30;14.90;99.90
16511;DHT22;8368;48.772;8.754;2022-07-22T01:48:56;14.90;99.90
16511;DHT22;8368;48.772;8.754;2022-07-22T01:51:22;14.90;99.90
16511;DHT22;8368;48.772;8.754;2022-07-22T01:53:48;14.80;99.90
16511;DHT22;8368;48.772;8.754;2022-07-22T01:56:14;14.80;99.90
16511;DHT22;8368;48.772;8.754;2022-07-22T01:58:40;14.80;99.90
16511;DHT22;8368;48.772;8.754;2022-07-22T02:01:06;14.80;99.90
16511;DHT22;8368;48.772;8.754;2022-07-22T02:03:33;14.70;99.90
16511;DHT22;8368;48.772;8.754;2022-07-22T02:05:59;14.70;99.90
16511;DHT22;8368;48.772;8.754;2022-07-22T02:08:25;14.60;99.90
16511;DHT22;8368;48.772;8.754;2022-07-22T02:10:50;14.50;99.90
16511;DHT22;8368;48.772;8.754;2022-07-22T02:13:16;14.50;99.90
16511;DHT22;8368;48.772;8.754;2022-07-22T02:15:41;14.50;99.90
16511;DHT22;8368;48.772;8.754;2022-07-22T02:18:15;14.50;99.90
16511;DHT22;8368;48.772;8.754;2022-07-22T02:20:42;14.40;99.90
16511;DHT22;8368;48.772;8.754;2022-07-22T02:23:08;14.40;99.90
16511;DHT22;8368;48.772;8.754;2022-07-22T02:25:34;14.40;99.90
16511;DHT22;8368;48.772;8.754;2022-07-22T02:28:00;14.40;99.90
16511;DHT22;8368;48.772;8.754;2022-07-22T02:30:25;14.30;99.90
16511;DHT22;8368;48.772;8.754;2022-07-22T02:32:51;14.30;99.90
16511;DHT22;8368;48.772;8.754;2022-07-22T02:35:16;14.30;99.90
16511;DHT22;8368;48.772;8.754;2022-07-22T02:37:42;14.30;99.90
16511;DHT22;8368;48.772;8.754;2022-07-22T02:40:08;14.30;99.90
16511;DHT22;8368;48.772;8.754;2022-07-22T02:42:34;14.30;99.90
16511;DHT22;8368;48.772;8.754;2022-07-22T02:44:59;14.30;99.90
16511;DHT22;8368;48.772;8.754;2022-07-22T02:47:25;14.30;99.90
16511;DHT22;8368;48.772;8.754;2022-07-22T02:49:51;14.30;99.90
16511;DHT22;8368;48.772;8.754;2022-07-22T02:52:17;14.20;99.90
16511;DHT22;8368;48.772;8.754;2022-07-22T02:54:42;14.20;99.90
16511;DHT22;8368;48.772;8.754;2022-07-22T02:57:08;14.20;99.90
16511;DHT22;8368;48.772;8.754;2022-07-22T02:59:34;14.20;99.90
16511;DHT22;8368;48.772;8.754;2022-07-22T03:02:00;14.20;99.90
16511;DHT22;8368;48.772;8.754;2022-07-22T03:04:25;14.20;99.90
16511;DHT22;8368;48.772;8.754;2022-07-22T03:06:51;14.20;99.90
16511;DHT22;8368;48.772;8.754;2022-07-22T03:09:16;14.20;99.90
16511;DHT22;8368;48.772;8.754;2022-07-22T03:11:42;14.10;99.90
16511;DHT22;8368;48.772;8.754;2022-07-22T03:14:08;14.20;99.90
16511;DHT22;8368;48.772;8.754;2022-07-22T03:16:33;14.10;99.90
16511;DHT22;8368;48.772;8.754;2022-07-22T03:18:59;14.10;99.90
16511;DHT22;8368;48.772;8.754;2022-07-22T03:21:24;14.00;99.90
16511;DHT22;8368;48.772;8.754;2022-07-22T03:23:50;14.00;99.90
16511;DHT22;8368;48.772;8.754;2022-07-22T03:26:19;14.00;99.90
16511;DHT22;8368;48.772;8.754;2022-07-22T03:28:46;14.00;99.90
16511;DHT22;8368;48.772;8.754;2022-07-22T03:31:12;14.00;99.90
16511;DHT22;8368;48.772;8.754;2022-07-22T03:33:37;14.00;99.90
16511;DHT22;8368;48.772;8.754;2022-07-22T03:36:03;14.00;99.90
16511;DHT22;8368;48.772;8.754;2022-07-22T03:38:31;14.00;99.90
16511;DHT22;8368;48.772;8.754;2022-07-22T03:40:56;13.90;99.90
16511;DHT22;8368;48.772;8.754;2022-07-22T03:43:22;13.90;99.90
16511;DHT22;8368;48.772;8.754;2022-07-22T03:45:48;13.90;99.90
16511;DHT22;8368;48.772;8.754;2022-07-22T03:48:13;13.90;99.90
16511;DHT22;8368;48.772;8.754;2022-07-22T03:50:39;13.80;99.90
16511;DHT22;8368;48.772;8.754;2022-07-22T03:53:04;13.90;99.90
16511;DHT22;8368;48.772;8.754;2022-07-22T03:55:30;13.90;99.90
16511;DHT22;8368;48.772;8.754;2022-07-22T03:57:55;13.90;99.90
16511;DHT22;8368;48.772;8.754;2022-07-22T04:00:21;13.90;99.90
16511;DHT22;8368;48.772;8.754;2022-07-22T04:02:46;13.90;99.90
16511;DHT22;8368;48.772;8.754;2022-07-22T04:05:12;13.90;99.90
16511;DHT22;8368;48.772;8.754;2022-07-22T04:07:37;13.80;99.90
16511;DHT22;8368;48.772;8.754;2022-07-22T04:10:03;13.80;99.90
16511;DHT22;8368;48.772;8.754;2022-07-22T04:12:36;13.80;99.90
16511;DHT22;8368;48.772;8.754;2022-07-22T04:15:03;13.80;99.90
16511;DHT22;8368;48.772;8.754;2022-07-22T04:17:29;13.80;99.90
16511;DHT22;8368;48.772;8.754;2022-07-22T04:19:55;13.80;99.90
16511;DHT22;8368;48.772;8.754;2022-07-22T04:22:21;13.80;99.90
16511;DHT22;8368;48.772;8.754;2022-07-22T04:24:47;13.80;99.90
16511;DHT22;8368;48.772;8.754;2022-07-22T04:27:12;13.80;99.90
16511;DHT22;8368;48.772;8.754;2022-07-22T04:29:38;13.90;99.90
16511;DHT22;8368;48.772;8.754;2022-07-22T04:32:03;13.90;99.90
16511;DHT22;8368;48.772;8.754;2022-07-22T04:34:29;13.90;99.90
16511;DHT22;8368;48.772;8.754;2022-07-22T04:36:55;13.90;99.90
16511;DHT22;8368;48.772;8.754;2022-07-22T04:39:20;14.00;99.90
16511;DHT22;8368;48.772;8.754;2022-07-22T04:41:46;14.00;99.90
16511;DHT22;8368;48.772;8.754;2022-07-22T04:44:11;14.00;99.90
16511;DHT22;8368;48.772;8.754;2022-07-22T04:46:37;14.00;99.90
16511;DHT22;8368;48.772;8.754;2022-07-22T04:49:02;14.10;99.90
16511;DHT22;8368;48.772;8.754;2022-07-22T04:51:28;14.10;99.90
16511;DHT22;8368;48.772;8.754;2022-07-22T04:53:54;14.20;99.90
16511;DHT22;8368;48.772;8.754;2022-07-22T04:56:20;14.20;99.90
16511;DHT22;8368;48.772;8.754;2022-07-22T04:58:46;14.30;99.90
16511;DHT22;8368;48.772;8.754;2022-07-22T05:01:11;14.40;99.90
16511;DHT22;8368;48.772;8.754;2022-07-22T05:03:41;14.40;99.90
16511;DHT22;8368;48.772;8.754;2022-07-22T05:06:07;14.50;99.90
16511;DHT22;8368;48.772;8.754;2022-07-22T05:08:33;14.50;99.90
16511;DHT22;8368;48.772;8.754;2022-07-22T05:10:58;14.60;99.90
16511;DHT22;8368;48.772;8.754;2022-07-22T05:13:24;14.70;99.90
16511;DHT22;8368;48.772;8.754;2022-07-22T05:15:49;14.70;99.90
16511;DHT22;8368;48.772;8.754;2022-07-22T05:18:15;14.80;99.90
16511;DHT22;8368;48.772;8.754;2022-07-22T05:20:41;14.90;99.90
16511;DHT22;8368;48.772;8.754;2022-07-22T05:23:07;15.10;99.90
16511;DHT22;8368;48.772;8.754;2022-07-22T05:25:32;15.20;99.90
16511;DHT22;8368;48.772;8.754;2022-07-22T05:27:58;15.30;99.90
16511;DHT22;8368;48.772;8.754;2022-07-22T05:30:24;15.50;99.90
16511;DHT22;8368;48.772;8.754;2022-07-22T05:32:49;15.80;99.90
16511;DHT22;8368;48.772;8.754;2022-07-22T05:35:15;15.90;99.90
16511;DHT22;8368;48.772;8.754;2022-07-22T05:37:40;16.10;99.90
16511;DHT22;8368;48.772;8.754;2022-07-22T05:40:06;16.30;99.90
16511;DHT22;8368;48.772;8.754;2022-07-22T05:42:32;16.50;99.90
16511;DHT22;8368;48.772;8.754;2022-07-22T05:44:58;16.50;99.90
16511;DHT22;8368;48.772;8.754;2022-07-22T05:47:23;16.70;99.90
16511;DHT22;8368;48.772;8.754;2022-07-22T05:49:49;16.80;99.90
16511;DHT22;8368;48.772;8.754;2022-07-22T05:52:14;16.90;99.90
16511;DHT22;8368;48.772;8.754;2022-07-22T05:54:40;16.90;99.90
16511;DHT22;8368;48.772;8.754;2022-07-22T05:57:06;17.00;99.90
16511;DHT22;8368;48.772;8.754;2022-07-22T05:59:35;17.10;99.90
16511;DHT22;8368;48.772;8.754;2022-07-22T06:02:01;17.30;99.90
16511;DHT22;8368;48.772;8.754;2022-07-22T06:04:26;17.40;99.90
16511;DHT22;8368;48.772;8.754;2022-07-22T06:06:52;17.50;99.90
16511;DHT22;8368;48.772;8.754;2022-07-22T06:09:18;17.60;99.90
16511;DHT22;8368;48.772;8.754;2022-07-22T06:11:43;17.70;99.90
16511;DHT22;8368;48.772;8.754;2022-07-22T06:14:09;17.70;99.90
16511;DHT22;8368;48.772;8.754;2022-07-22T06:16:34;17.80;99.90
16511;DHT22;8368;48.772;8.754;2022-07-22T06:19:01;17.90;99.90
16511;DHT22;8368;48.772;8.754;2022-07-22T06:21:27;17.90;99.90
16511;DHT22;8368;48.772;8.754;2022-07-22T06:23:52;18.00;99.90
16511;DHT22;8368;48.772;8.754;2022-07-22T06:26:18;18.00;99.90
16511;DHT22;8368;48.772;8.754;2022-07-22T06:28:43;18.00;99.90
16511;DHT22;8368;48.772;8.754;2022-07-22T06:31:09;18.10;99.90
16511;DHT22;8368;48.772;8.754;2022-07-22T06:33:35;18.10;99.90
16511;DHT22;8368;48.772;8.754;2022-07-22T06:36:00;18.20;99.90
16511;DHT22;8368;48.772;8.754;2022-07-22T06:38:26;18.20;99.90
16511;DHT22;8368;48.772;8.754;2022-07-22T06:40:51;18.30;99.90
16511;DHT22;8368;48.772;8.754;2022-07-22T06:43:17;18.30;99.90
16511;DHT22;8368;48.772;8.754;2022-07-22T06:45:42;18.30;99.90
16511;DHT22;8368;48.772;8.754;2022-07-22T06:48:08;18.30;99.90
16511;DHT22;8368;48.772;8.754;2022-07-22T06:50:34;18.30;99.90
16511;DHT22;8368;48.772;8.754;2022-07-22T06:52:59;18.40;99.90
16511;DHT22;8368;48.772;8.754;2022-07-22T06:55:25;18.50;99.90
16511;DHT22;8368;48.772;8.754;2022-07-22T06:57:50;18.50;99.90
16511;DHT22;8368;48.772;8.754;2022-07-22T07:00:16;18.60;99.90
16511;DHT22;8368;48.772;8.754;2022-07-22T07:02:42;18.60;99.90
16511;DHT22;8368;48.772;8.754;2022-07-22T07:05:08;18.60;99.90
16511;DHT22;8368;48.772;8.754;2022-07-22T07:07:35;18.60;99.90
16511;DHT22;8368;48.772;8.754;2022-07-22T07:10:00;18.70;99.90
16511;DHT22;8368;48.772;8.754;2022-07-22T07:12:26;18.80;99.90
16511;DHT22;8368;48.772;8.754;2022-07-22T07:14:52;18.80;99.90
16511;DHT22;8368;48.772;8.754;2022-07-22T07:17:17;18.80;99.90
16511;DHT22;8368;48.772;8.754;2022-07-22T07:19:43;19.00;99.90
16511;DHT22;8368;48.772;8.754;2022-07-22T07:22:08;19.10;99.90
16511;DHT22;8368;48.772;8.754;2022-07-22T07:24:34;19.10;99.90
16511;DHT22;8368;48.772;8.754;2022-07-22T07:26:59;19.10;99.90
16511;DHT22;8368;48.772;8.754;2022-07-22T07:29:25;19.10;99.90
16511;DHT22;8368;48.772;8.754;2022-07-22T07:31:50;19.20;99.90
16511;DHT22;8368;48.772;8.754;2022-07-22T07:34:16;19.30;99.90
16511;DHT22;8368;48.772;8.754;2022-07-22T07:36:41;19.40;99.90
16511;DHT22;8368;48.772;8.754;2022-07-22T07:39:07;19.50;99.90
16511;DHT22;8368;48.772;8.754;2022-07-22T07:41:33;19.60;99.90
16511;DHT22;8368;48.772;8.754;2022-07-22T07:43:58;19.70;99.90
16511;DHT22;8368;48.772;8.754;2022-07-22T07:46:24;19.90;99.90
16511;DHT22;8368;48.772;8.754;2022-07-22T07:48:49;19.90;99.90
16511;DHT22;8368;48.772;8.754;2022-07-22T07:51:15;20.00;99.90
16511;DHT22;8368;48.772;8.754;2022-07-22T07:53:41;20.00;99.90
16511;DHT22;8368;48.772;8.754;2022-07-22T07:56:06;20.00;99.90
16511;DHT22;8368;48.772;8.754;2022-07-22T07:58:32;20.10;99.90
16511;DHT22;8368;48.772;8.754;2022-07-22T08:00:57;20.10;99.90
16511;DHT22;8368;48.772;8.754;2022-07-22T08:03:23;20.20;99.90
16511;DHT22;8368;48.772;8.754;2022-07-22T08:05:48;20.30;99.90
16511;DHT22;8368;48.772;8.754;2022-07-22T08:08:14;20.40;99.90
16511;DHT22;8368;48.772;8.754;2022-07-22T08:10:40;20.50;99.90
16511;DHT22;8368;48.772;8.754;2022-07-22T08:13:05;20.60;99.90
16511;DHT22;8368;48.772;8.754;2022-07-22T08:15:31;20.60;99.90
16511;DHT22;8368;48.772;8.754;2022-07-22T08:17:57;20.70;99.90
16511;DHT22;8368;48.772;8.754;2022-07-22T08:20:24;20.80;99.90
16511;DHT22;8368;48.772;8.754;2022-07-22T08:22:51;20.90;99.90
16511;DHT22;8368;48.772;8.754;2022-07-22T08:25:18;20.90;99.90
16511;DHT22;8368;48.772;8.754;2022-07-22T08:27:43;21.10;99.90
16511;DHT22;8368;48.772;8.754;2022-07-22T08:30:09;21.10;99.90
16511;DHT22;8368;48.772;8.754;2022-07-22T08:32:35;21.20;99.90
16511;DHT22;8368;48.772;8.754;2022-07-22T08:35:01;21.40;99.90
16511;DHT22;8368;48.772;8.754;2022-07-22T08:37:27;21.60;99.90
16511;DHT22;8368;48.772;8.754;2022-07-22T08:39:52;21.70;99.90
16511;DHT22;8368;48.772;8.754;2022-07-22T08:42:21;21.70;99.90
16511;DHT22;8368;48.772;8.754;2022-07-22T08:44:47;21.70;99.90
16511;DHT22;8368;48.772;8.754;2022-07-22T08:47:13;21.80;99.90
16511;DHT22;8368;48.772;8.754;2022-07-22T08:49:39;21.90;99.90
16511;DHT22;8368;48.772;8.754;2022-07-22T08:52:04;22.00;99.90
16511;DHT22;8368;48.772;8.754;2022-07-22T08:54:30;22.00;99.90
16511;DHT22;8368;48.772;8.754;2022-07-22T08:56:55;22.10;99.90
16511;DHT22;8368;48.772;8.754;2022-07-22T08:59:21;22.20;99.90
16511;DHT22;8368;48.772;8.754;2022-07-22T09:02:09;22.20;99.90
16511;DHT22;8368;48.772;8.754;2022-07-22T09:07:34;22.40;99.90
16511;DHT22;8368;48.772;8.754;2022-07-22T09:10:01;22.50;99.90
16511;DHT22;8368;48.772;8.754;2022-07-22T09:12:27;22.70;99.90
16511;DHT22;8368;48.772;8.754;2022-07-22T09:14:56;22.80;99.90
16511;DHT22;8368;48.772;8.754;2022-07-22T09:17:23;22.90;99.90
16511;DHT22;8368;48.772;8.754;2022-07-22T09:19:49;22.90;99.90
16511;DHT22;8368;48.772;8.754;2022-07-22T09:22:37;22.90;99.90
16511;DHT22;8368;48.772;8.754;2022-07-22T09:28:18;23.10;99.90
16511;DHT22;8368;48.772;8.754;2022-07-22T09:30:52;23.10;99.90
16511;DHT22;8368;48.772;8.754;2022-07-22T09:33:18;23.00;99.90
16511;DHT22;8368;48.772;8.754;2022-07-22T09:35:46;23.10;99.90
16511;DHT22;8368;48.772;8.754;2022-07-22T09:38:13;23.20;99.90
16511;DHT22;8368;48.772;8.754;2022-07-22T09:40:44;23.40;99.90
16511;DHT22;8368;48.772;8.754;2022-07-22T09:43:20;23.40;99.90
16511;DHT22;8368;48.772;8.754;2022-07-22T09:45:56;23.50;99.90
16511;DHT22;8368;48.772;8.754;2022-07-22T09:48:23;23.60;99.90
16511;DHT22;8368;48.772;8.754;2022-07-22T09:50:51;23.50;99.90
16511;DHT22;8368;48.772;8.754;2022-07-22T09:53:18;23.60;99.90
16511;DHT22;8368;48.772;8.754;2022-07-22T09:55:45;23.80;99.90
16511;DHT22;8368;48.772;8.754;2022-07-22T09:58:10;23.70;99.90
16511;DHT22;8368;48.772;8.754;2022-07-22T10:00:38;23.90;99.90
16511;DHT22;8368;48.772;8.754;2022-07-22T10:03:07;24.10;99.90
16511;DHT22;8368;48.772;8.754;2022-07-22T10:05:36;24.30;99.90
16511;DHT22;8368;48.772;8.754;2022-07-22T10:08:03;24.40;99.90
16511;DHT22;8368;48.772;8.754;2022-07-22T10:10:30;24.40;99.90
16511;DHT22;8368;48.772;8.754;2022-07-22T10:12:59;24.50;99.90
16511;DHT22;8368;48.772;8.754;2022-07-22T10:15:26;24.60;99.90
16511;DHT22;8368;48.772;8.754;2022-07-22T10:17:59;24.70;99.90
16511;DHT22;8368;48.772;8.754;2022-07-22T10:20:30;24.70;99.90
16511;DHT22;8368;48.772;8.754;2022-07-22T10:25:29;25.10;99.90
16511;DHT22;8368;48.772;8.754;2022-07-22T10:27:56;25.10;99.90
16511;DHT22;8368;48.772;8.754;2022-07-22T10:30:25;25.20;99.90
16511;DHT22;8368;48.772;8.754;2022-07-22T10:33:24;25.20;99.90
16511;DHT22;8368;48.772;8.754;2022-07-22T10:36:02;25.50;99.90
16511;DHT22;8368;48.772;8.754;2022-07-22T10:38:29;25.60;99.90
16511;DHT22;8368;48.772;8.754;2022-07-22T10:41:00;25.60;99.90
16511;DHT22;8368;48.772;8.754;2022-07-22T10:43:31;25.60;99.90
16511;DHT22;8368;48.772;8.754;2022-07-22T10:45:59;25.60;99.90
16511;DHT22;8368;48.772;8.754;2022-07-22T10:56:28;26.00;99.90
16511;DHT22;8368;48.772;8.754;2022-07-22T10:58:59;26.00;99.90
16511;DHT22;8368;48.772;8.754;2022-07-22T11:01:32;26.10;99.90
16511;DHT22;8368;48.772;8.754;2022-07-22T11:04:17;26.20;99.90
16511;DHT22;8368;48.772;8.754;2022-07-22T11:06:44;26.20;99.90
16511;DHT22;8368;48.772;8.754;2022-07-22T11:09:11;26.40;99.90
16511;DHT22;8368;48.772;8.754;2022-07-22T11:14:44;26.50;99.90
16511;DHT22;8368;48.772;8.754;2022-07-22T11:17:08;26.60;99.90
16511;DHT22;8368;48.772;8.754;2022-07-22T11:19:35;26.60;99.90
16511;DHT22;8368;48.772;8.754;2022-07-22T11:22:11;26.60;99.90
16511;DHT22;8368;48.772;8.754;2022-07-22T11:24:39;26.70;99.90
16511;DHT22;8368;48.772;8.754;2022-07-22T11:27:09;26.80;99.90
16511;DHT22;8368;48.772;8.754;2022-07-22T11:29:39;26.80;99.90
16511;DHT22;8368;48.772;8.754;2022-07-22T11:32:09;26.80;99.90
16511;DHT22;8368;48.772;8.754;2022-07-22T11:34:45;26.90;99.90
16511;DHT22;8368;48.772;8.754;2022-07-22T11:37:19;27.00;99.90
16511;DHT22;8368;48.772;8.754;2022-07-22T11:39:45;27.10;99.90
16511;DHT22;8368;48.772;8.754;2022-07-22T11:42:12;27.10;99.90
16511;DHT22;8368;48.772;8.754;2022-07-22T11:44:38;27.20;99.90
16511;DHT22;8368;48.772;8.754;2022-07-22T11:47:05;27.30;99.90
16511;DHT22;8368;48.772;8.754;2022-07-22T11:49:32;27.30;99.90
16511;DHT22;8368;48.772;8.754;2022-07-22T11:51:59;27.40;99.90
16511;DHT22;8368;48.772;8.754;2022-07-22T11:54:26;27.30;99.90
16511;DHT22;8368;48.772;8.754;2022-07-22T11:56:52;27.30;99.90
16511;DHT22;8368;48.772;8.754;2022-07-22T11:59:17;27.40;99.90
16511;DHT22;8368;48.772;8.754;2022-07-22T12:01:44;27.60;99.90
16511;DHT22;8368;48.772;8.754;2022-07-22T12:04:12;27.90;99.90
16511;DHT22;8368;48.772;8.754;2022-07-22T12:06:42;28.10;99.90
16511;DHT22;8368;48.772;8.754;2022-07-22T12:11:37;28.20;99.90
16511;DHT22;8368;48.772;8.754;2022-07-22T12:14:08;28.40;99.90
16511;DHT22;8368;48.772;8.754;2022-07-22T12:16:34;28.50;99.90
16511;DHT22;8368;48.772;8.754;2022-07-22T12:19:05;28.70;99.90
16511;DHT22;8368;48.772;8.754;2022-07-22T12:21:37;28.70;99.90
16511;DHT22;8368;48.772;8.754;2022-07-22T12:24:07;28.70;99.90
16511;DHT22;8368;48.772;8.754;2022-07-22T12:26:47;28.60;99.90
16511;DHT22;8368;48.772;8.754;2022-07-22T12:29:24;28.40;99.90
16511;DHT22;8368;48.772;8.754;2022-07-22T12:31:53;28.30;99.90
16511;DHT22;8368;48.772;8.754;2022-07-22T12:34:41;28.20;99.90
16511;DHT22;8368;48.772;8.754;2022-07-22T12:37:20;28.40;99.90
16511;DHT22;8368;48.772;8.754;2022-07-22T12:42:30;28.70;99.90
16511;DHT22;8368;48.772;8.754;2022-07-22T12:45:19;28.80;99.90
16511;DHT22;8368;48.772;8.754;2022-07-22T12:47:52;29.20;99.90
16511;DHT22;8368;48.772;8.754;2022-07-22T12:50:27;29.50;99.90
16511;DHT22;8368;48.772;8.754;2022-07-22T12:52:56;29.80;99.90
16511;DHT22;8368;48.772;8.754;2022-07-22T12:55:22;29.90;99.90
16511;DHT22;8368;48.772;8.754;2022-07-22T12:57:48;30.30;99.90
16511;DHT22;8368;48.772;8.754;2022-07-22T13:00:23;30.30;99.90
16511;DHT22;8368;48.772;8.754;2022-07-22T13:02:49;30.60;99.90
16511;DHT22;8368;48.772;8.754;2022-07-22T13:05:15;30.70;99.90
16511;DHT22;8368;48.772;8.754;2022-07-22T13:07:41;30.80;99.90
16511;DHT22;8368;48.772;8.754;2022-07-22T13:10:08;31.10;99.90
16511;DHT22;8368;48.772;8.754;2022-07-22T13:12:34;32.00;99.90
16511;DHT22;8368;48.772;8.754;2022-07-22T13:14:59;33.20;99.90
16511;DHT22;8368;48.772;8.754;2022-07-22T13:17:25;34.50;99.90
16511;DHT22;8368;48.772;8.754;2022-07-22T13:19:51;35.60;99.90
16511;DHT22;8368;48.772;8.754;2022-07-22T13:22:16;36.30;99.10
16511;DHT22;8368;48.772;8.754;2022-07-22T13:24:42;37.00;97.20
16511;DHT22;8368;48.772;8.754;2022-07-22T13:27:07;37.60;97.20
16511;DHT22;8368;48.772;8.754;2022-07-22T13:29:33;38.30;94.40
16511;DHT22;8368;48.772;8.754;2022-07-22T13:31:59;38.80;93.10
16511;DHT22;8368;48.772;8.754;2022-07-22T13:34:24;39.10;91.20
16511;DHT22;8368;48.772;8.754;2022-07-22T13:36:50;39.20;92.00
16511;DHT22;8368;48.772;8.754;2022-07-22T13:39:15;39.40;90.80
16511;DHT22;8368;48.772;8.754;2022-07-22T13:41:41;39.70;89.30
16511;DHT22;8368;48.772;8.754;2022-07-22T13:44:07;39.80;90.10
16511;DHT22;8368;48.772;8.754;2022-07-22T13:46:34;39.60;88.40
16511;DHT22;8368;48.772;8.754;2022-07-22T13:49:01;39.80;86.60
16511;DHT22;8368;48.772;8.754;2022-07-22T13:51:28;40.20;85.90
16511;DHT22;8368;48.772;8.754;2022-07-22T13:53:57;40.50;83.90
16511;DHT22;8368;48.772;8.754;2022-07-22T13:56:27;40.80;83.90
16511;DHT22;8368;48.772;8.754;2022-07-22T13:58:55;40.20;83.00
16511;DHT22;8368;48.772;8.754;2022-07-22T14:01:28;39.70;83.20
16511;DHT22;8368;48.772;8.754;2022-07-22T14:04:01;40.10;82.10
16511;DHT22;8368;48.772;8.754;2022-07-22T14:06:30;40.20;82.10
16511;DHT22;8368;48.772;8.754;2022-07-22T14:09:01;40.80;82.00
16511;DHT22;8368;48.772;8.754;2022-07-22T14:11:28;40.80;79.70
16511;DHT22;8368;48.772;8.754;2022-07-22T14:13:55;40.80;81.00
16511;DHT22;8368;48.772;8.754;2022-07-22T14:19:41;40.20;80.50
16511;DHT22;8368;48.772;8.754;2022-07-22T14:22:08;39.90;80.80
16511;DHT22;8368;48.772;8.754;2022-07-22T14:24:37;39.60;78.60
16511;DHT22;8368;48.772;8.754;2022-07-22T14:27:06;38.40;80.10
16511;DHT22;8368;48.772;8.754;2022-07-22T14:29:34;38.00;83.10
16511;DHT22;8368;48.772;8.754;2022-07-22T14:32:01;37.30;82.30
16511;DHT22;8368;48.772;8.754;2022-07-22T14:34:28;36.90;83.10
16511;DHT22;8368;48.772;8.754;2022-07-22T14:36:57;36.20;82.90
16511;DHT22;8368;48.772;8.754;2022-07-22T14:39:23;36.00;84.80
16511;DHT22;8368;48.772;8.754;2022-07-22T14:41:49;35.80;82.90
16511;DHT22;8368;48.772;8.754;2022-07-22T14:44:16;35.60;84.80
16511;DHT22;8368;48.772;8.754;2022-07-22T14:46:45;35.30;84.80
16511;DHT22;8368;48.772;8.754;2022-07-22T14:49:11;35.00;86.90
16511;DHT22;8368;48.772;8.754;2022-07-22T14:51:36;34.60;87.60
16511;DHT22;8368;48.772;8.754;2022-07-22T14:54:02;34.30;87.40
16511;DHT22;8368;48.772;8.754;2022-07-22T14:56:28;34.10;87.20
16511;DHT22;8368;48.772;8.754;2022-07-22T14:58:53;34.00;88.80
16511;DHT22;8368;48.772;8.754;2022-07-22T15:01:20;33.80;90.10
16511;DHT22;8368;48.772;8.754;2022-07-22T15:03:46;33.50;89.10
16511;DHT22;8368;48.772;8.754;2022-07-22T15:06:12;33.30;90.30
16511;DHT22;8368;48.772;8.754;2022-07-22T15:08:38;33.20;90.10
16511;DHT22;8368;48.772;8.754;2022-07-22T15:11:04;33.00;90.50
16511;DHT22;8368;48.772;8.754;2022-07-22T15:13:30;32.40;89.30
16511;DHT22;8368;48.772;8.754;2022-07-22T15:15:57;32.00;89.40
16511;DHT22;8368;48.772;8.754;2022-07-22T15:18:24;31.60;90.40
16511;DHT22;8368;48.772;8.754;2022-07-22T15:20:50;31.40;91.80
16511;DHT22;8368;48.772;8.754;2022-07-22T15:23:29;31.10;91.00
16511;DHT22;8368;48.772;8.754;2022-07-22T15:25:58;30.90;92.80
16511;DHT22;8368;48.772;8.754;2022-07-22T15:28:29;30.90;92.40
16511;DHT22;8368;48.772;8.754;2022-07-22T15:31:01;31.00;90.60
16511;DHT22;8368;48.772;8.754;2022-07-22T15:33:34;31.10;91.10
16511;DHT22;8368;48.772;8.754;2022-07-22T15:36:20;31.30;91.20
16511;DHT22;8368;48.772;8.754;2022-07-22T15:38:48;31.50;91.10
16511;DHT22;8368;48.772;8.754;2022-07-22T15:41:16;31.40;91.50
16511;DHT22;8368;48.772;8.754;2022-07-22T15:43:47;31.30;91.90
16511;DHT22;8368;48.772;8.754;2022-07-22T15:46:14;31.30;92.10
16511;DHT22;8368;48.772;8.754;2022-07-22T15:48:53;31.40;92.30
16511;DHT22;8368;48.772;8.754;2022-07-22T15:51:24;30.90;92.20
16511;DHT22;8368;48.772;8.754;2022-07-22T15:53:53;30.70;92.70
16511;DHT22;8368;48.772;8.754;2022-07-22T15:56:20;30.50;92.80
16511;DHT22;8368;48.772;8.754;2022-07-22T15:58:49;30.40;93.10
16511;DHT22;8368;48.772;8.754;2022-07-22T16:01:34;30.30;93.40
16511;DHT22;8368;48.772;8.754;2022-07-22T16:04:02;30.30;93.40
16511;DHT22;8368;48.772;8.754;2022-07-22T16:06:30;30.00;93.50
16511;DHT22;8368;48.772;8.754;2022-07-22T16:08:57;29.80;93.80
16511;DHT22;8368;48.772;8.754;2022-07-22T16:11:28;29.70;94.20
16511;DHT22;8368;48.772;8.754;2022-07-22T16:13:56;29.50;94.20